sensor_id;sensor_type;location;lat;lon;timestamp;temperature;humidity
68609;SHT31;55581;46.718;7.690;2024-03-07T00:01:17;4.43;92.19
68609;SHT31;55581;46.718;7.690;2024-03-07T00:03:42;4.46;92.23
68609;SHT31;55581;46.718;7.690;2024-03-07T00:06:10;4.29;91.51
68609;SHT31;55581;46.718;7.690;2024-03-07T00:08:35;4.26;91.82
68609;SHT31;55581;46.718;7.690;2024-03-07T00:11:01;4.17;91.53
68609;SHT31;55581;46.718;7.690;2024-03-07T00:13:27;4.23;92.89
68609;SHT31;55581;46.718;7.690;2024-03-07T00:15:55;4.16;92.29
68609;SHT31;55581;46.718;7.690;2024-03-07T00:18:20;4.16;91.97
68609;SHT31;55581;46.718;7.690;2024-03-07T00:20:46;4.05;92.11
68609;SHT31;55581;46.718;7.690;2024-03-07T00:23:11;3.97;92.49
68609;SHT31;55581;46.718;7.690;2024-03-07T00:25:37;3.98;92.61
68609;SHT31;55581;46.718;7.690;2024-03-07T00:28:03;3.92;92.59
68609;SHT31;55581;46.718;7.690;2024-03-07T00:30:29;3.97;92.52
68609;SHT31;55581;46.718;7.690;2024-03-07T00:32:55;4.03;91.01
68609;SHT31;55581;46.718;7.690;2024-03-07T00:35:21;3.97;90.39
68609;SHT31;55581;46.718;7.690;2024-03-07T00:37:47;3.82;90.97
68609;SHT31;55581;46.718;7.690;2024-03-07T00:40:12;3.74;92.04
68609;SHT31;55581;46.718;7.690;2024-03-07T00:42:38;3.67;92.60
68609;SHT31;55581;46.718;7.690;2024-03-07T00:45:06;3.61;92.57
68609;SHT31;55581;46.718;7.690;2024-03-07T00:47:32;3.54;93.75
68609;SHT31;55581;46.718;7.690;2024-03-07T00:49:57;3.53;93.69
68609;SHT31;55581;46.718;7.690;2024-03-07T00:52:23;3.61;93.98
68609;SHT31;55581;46.718;7.690;2024-03-07T00:54:51;3.54;93.67
68609;SHT31;55581;46.718;7.690;2024-03-07T00:57:16;3.53;93.69
68609;SHT31;55581;46.718;7.690;2024-03-07T00:59:42;3.61;94.48
68609;SHT31;55581;46.718;7.690;2024-03-07T01:02:07;3.70;92.65
68609;SHT31;55581;46.718;7.690;2024-03-07T01:04:32;3.68;93.04
68609;SHT31;55581;46.718;7.690;2024-03-07T01:06:59;3.77;93.91
68609;SHT31;55581;46.718;7.690;2024-03-07T01:09:27;3.84;92.82
68609;SHT31;55581;46.718;7.690;2024-03-07T01:11:54;3.92;91.47
68609;SHT31;55581;46.718;7.690;2024-03-07T01:14:20;4.01;90.75
68609;SHT31;55581;46.718;7.690;2024-03-07T01:16:48;4.05;90.20
68609;SHT31;55581;46.718;7.690;2024-03-07T01:19:13;4.13;89.99
68609;SHT31;55581;46.718;7.690;2024-03-07T01:21:40;4.06;90.17
68609;SHT31;55581;46.718;7.690;2024-03-07T01:24:06;3.95;89.27
68609;SHT31;55581;46.718;7.690;2024-03-07T01:26:31;3.92;90.62
68609;SHT31;55581;46.718;7.690;2024-03-07T01:28:58;3.91;90.83
68609;SHT31;55581;46.718;7.690;2024-03-07T01:31:24;3.85;89.45
68609;SHT31;55581;46.718;7.690;2024-03-07T01:33:52;3.84;89.76
68609;SHT31;55581;46.718;7.690;2024-03-07T01:36:18;3.74;90.97
68609;SHT31;55581;46.718;7.690;2024-03-07T01:38:44;3.74;91.16
68609;SHT31;55581;46.718;7.690;2024-03-07T01:41:09;3.71;91.41
68609;SHT31;55581;46.718;7.690;2024-03-07T01:43:35;3.70;90.79
68609;SHT31;55581;46.718;7.690;2024-03-07T01:46:00;3.87;90.57
68609;SHT31;55581;46.718;7.690;2024-03-07T01:48:27;3.91;90.63
68609;SHT31;55581;46.718;7.690;2024-03-07T01:50:58;3.89;90.94
68609;SHT31;55581;46.718;7.690;2024-03-07T01:53:25;3.97;90.48
68609;SHT31;55581;46.718;7.690;2024-03-07T01:55:52;3.94;90.98
68609;SHT31;55581;46.718;7.690;2024-03-07T01:58:21;3.89;91.31
68609;SHT31;55581;46.718;7.690;2024-03-07T02:00:46;3.95;91.72
68609;SHT31;55581;46.718;7.690;2024-03-07T02:03:14;4.03;91.51
68609;SHT31;55581;46.718;7.690;2024-03-07T02:05:43;4.08;91.34
68609;SHT31;55581;46.718;7.690;2024-03-07T02:08:09;4.12;91.02
68609;SHT31;55581;46.718;7.690;2024-03-07T02:10:37;4.17;90.92
68609;SHT31;55581;46.718;7.690;2024-03-07T02:13:03;4.15;91.17
68609;SHT31;55581;46.718;7.690;2024-03-07T02:15:28;4.17;91.44
68609;SHT31;55581;46.718;7.690;2024-03-07T02:17:54;4.16;91.87
68609;SHT31;55581;46.718;7.690;2024-03-07T02:20:19;4.20;91.77
68609;SHT31;55581;46.718;7.690;2024-03-07T02:22:47;4.20;91.75
68609;SHT31;55581;46.718;7.690;2024-03-07T02:25:12;4.25;92.07
68609;SHT31;55581;46.718;7.690;2024-03-07T02:27:38;4.29;92.04
68609;SHT31;55581;46.718;7.690;2024-03-07T02:30:05;4.32;91.61
68609;SHT31;55581;46.718;7.690;2024-03-07T02:32:36;4.28;91.44
68609;SHT31;55581;46.718;7.690;2024-03-07T02:35:03;4.29;90.51
68609;SHT31;55581;46.718;7.690;2024-03-07T02:37:29;4.26;89.26
68609;SHT31;55581;46.718;7.690;2024-03-07T02:39:54;4.29;89.66
68609;SHT31;55581;46.718;7.690;2024-03-07T02:42:22;4.23;88.75
68609;SHT31;55581;46.718;7.690;2024-03-07T02:44:47;4.06;90.46
68609;SHT31;55581;46.718;7.690;2024-03-07T02:47:12;4.06;90.60
68609;SHT31;55581;46.718;7.690;2024-03-07T02:49:40;4.01;90.26
68609;SHT31;55581;46.718;7.690;2024-03-07T02:52:05;4.06;90.26
68609;SHT31;55581;46.718;7.690;2024-03-07T02:54:33;3.98;90.66
68609;SHT31;55581;46.718;7.690;2024-03-07T02:57:01;3.94;89.89
68609;SHT31;55581;46.718;7.690;2024-03-07T02:59:26;3.99;89.63
68609;SHT31;55581;46.718;7.690;2024-03-07T03:01:52;3.91;90.90
68609;SHT31;55581;46.718;7.690;2024-03-07T03:04:17;3.97;90.59
68609;SHT31;55581;46.718;7.690;2024-03-07T03:06:43;3.98;89.61
68609;SHT31;55581;46.718;7.690;2024-03-07T03:09:11;3.97;89.86
68609;SHT31;55581;46.718;7.690;2024-03-07T03:11:42;3.94;90.20
68609;SHT31;55581;46.718;7.690;2024-03-07T03:14:08;3.88;89.70
68609;SHT31;55581;46.718;7.690;2024-03-07T03:16:35;3.84;90.54
68609;SHT31;55581;46.718;7.690;2024-03-07T03:19:01;3.82;91.43
68609;SHT31;55581;46.718;7.690;2024-03-07T03:21:26;3.78;91.00
68609;SHT31;55581;46.718;7.690;2024-03-07T03:23:52;3.67;91.03
68609;SHT31;55581;46.718;7.690;2024-03-07T03:26:20;3.61;92.23
68609;SHT31;55581;46.718;7.690;2024-03-07T03:28:47;3.60;91.53
68609;SHT31;55581;46.718;7.690;2024-03-07T03:31:12;3.57;92.10
68609;SHT31;55581;46.718;7.690;2024-03-07T03:33:39;3.51;92.70
68609;SHT31;55581;46.718;7.690;2024-03-07T03:36:06;3.51;92.90
68609;SHT31;55581;46.718;7.690;2024-03-07T03:38:32;3.51;91.74
68609;SHT31;55581;46.718;7.690;2024-03-07T03:40:57;3.47;92.24
68609;SHT31;55581;46.718;7.690;2024-03-07T03:43:23;3.40;92.21
68609;SHT31;55581;46.718;7.690;2024-03-07T03:45:48;3.44;92.22
68609;SHT31;55581;46.718;7.690;2024-03-07T03:48:14;3.46;92.59
68609;SHT31;55581;46.718;7.690;2024-03-07T03:50:39;3.53;92.38
68609;SHT31;55581;46.718;7.690;2024-03-07T03:53:05;3.61;92.03
68609;SHT31;55581;46.718;7.690;2024-03-07T03:55:31;3.63;91.99
68609;SHT31;55581;46.718;7.690;2024-03-07T03:57:57;3.54;91.97
68609;SHT31;55581;46.718;7.690;2024-03-07T04:00:25;3.46;92.26
68609;SHT31;55581;46.718;7.690;2024-03-07T04:02:51;3.39;91.89
68609;SHT31;55581;46.718;7.690;2024-03-07T04:05:18;3.29;92.28
68609;SHT31;55581;46.718;7.690;2024-03-07T04:07:44;3.22;91.93
68609;SHT31;55581;46.718;7.690;2024-03-07T04:10:11;3.15;92.15
68609;SHT31;55581;46.718;7.690;2024-03-07T04:12:40;3.16;92.70
68609;SHT31;55581;46.718;7.690;2024-03-07T04:15:10;3.18;92.90
68609;SHT31;55581;46.718;7.690;2024-03-07T04:17:37;3.15;92.90
68609;SHT31;55581;46.718;7.690;2024-03-07T04:20:06;3.13;93.45
68609;SHT31;55581;46.718;7.690;2024-03-07T04:22:33;3.08;93.09
68609;SHT31;55581;46.718;7.690;2024-03-07T04:24:59;3.12;93.60
68609;SHT31;55581;46.718;7.690;2024-03-07T04:27:24;3.09;92.90
68609;SHT31;55581;46.718;7.690;2024-03-07T04:29:53;3.06;93.07
68609;SHT31;55581;46.718;7.690;2024-03-07T04:32:18;3.02;93.60
68609;SHT31;55581;46.718;7.690;2024-03-07T04:34:44;2.96;93.56
68609;SHT31;55581;46.718;7.690;2024-03-07T04:37:10;2.99;93.63
68609;SHT31;55581;46.718;7.690;2024-03-07T04:39:36;3.04;93.59
68609;SHT31;55581;46.718;7.690;2024-03-07T04:42:02;3.11;92.83
68609;SHT31;55581;46.718;7.690;2024-03-07T04:44:29;3.15;92.02
68609;SHT31;55581;46.718;7.690;2024-03-07T04:46:55;3.13;91.82
68609;SHT31;55581;46.718;7.690;2024-03-07T04:49:24;3.13;90.67
68609;SHT31;55581;46.718;7.690;2024-03-07T04:51:51;3.12;91.32
68609;SHT31;55581;46.718;7.690;2024-03-07T04:54:17;3.08;91.17
68609;SHT31;55581;46.718;7.690;2024-03-07T04:56:44;3.08;91.81
68609;SHT31;55581;46.718;7.690;2024-03-07T04:59:12;3.08;91.83
68609;SHT31;55581;46.718;7.690;2024-03-07T05:01:38;3.15;92.28
68609;SHT31;55581;46.718;7.690;2024-03-07T05:04:07;3.16;91.69
68609;SHT31;55581;46.718;7.690;2024-03-07T05:06:32;3.09;92.34
68609;SHT31;55581;46.718;7.690;2024-03-07T05:09:03;3.01;91.88
68609;SHT31;55581;46.718;7.690;2024-03-07T05:11:34;3.05;92.16
68609;SHT31;55581;46.718;7.690;2024-03-07T05:14:01;3.02;91.05
68609;SHT31;55581;46.718;7.690;2024-03-07T05:16:31;3.01;91.51
68609;SHT31;55581;46.718;7.690;2024-03-07T05:18:59;2.91;90.82
68609;SHT31;55581;46.718;7.690;2024-03-07T05:21:26;2.88;90.76
68609;SHT31;55581;46.718;7.690;2024-03-07T05:24:00;2.78;91.54
68609;SHT31;55581;46.718;7.690;2024-03-07T05:26:26;2.74;91.88
68609;SHT31;55581;46.718;7.690;2024-03-07T05:28:52;2.70;92.75
68609;SHT31;55581;46.718;7.690;2024-03-07T05:31:22;2.67;90.39
68609;SHT31;55581;46.718;7.690;2024-03-07T05:33:49;2.65;92.04
68609;SHT31;55581;46.718;7.690;2024-03-07T05:36:15;2.64;90.65
68609;SHT31;55581;46.718;7.690;2024-03-07T05:38:41;2.73;88.26
68609;SHT31;55581;46.718;7.690;2024-03-07T05:41:12;2.75;88.25
68609;SHT31;55581;46.718;7.690;2024-03-07T05:43:38;2.77;88.79
68609;SHT31;55581;46.718;7.690;2024-03-07T05:46:04;2.75;88.82
68609;SHT31;55581;46.718;7.690;2024-03-07T05:48:31;2.70;87.86
68609;SHT31;55581;46.718;7.690;2024-03-07T05:50:57;2.77;85.44
68609;SHT31;55581;46.718;7.690;2024-03-07T05:53:25;2.80;84.14
68609;SHT31;55581;46.718;7.690;2024-03-07T05:55:50;2.78;85.60
68609;SHT31;55581;46.718;7.690;2024-03-07T05:58:18;2.73;86.85
68609;SHT31;55581;46.718;7.690;2024-03-07T06:00:45;2.57;86.85
68609;SHT31;55581;46.718;7.690;2024-03-07T06:03:18;2.51;87.45
68609;SHT31;55581;46.718;7.690;2024-03-07T06:05:50;2.47;88.94
68609;SHT31;55581;46.718;7.690;2024-03-07T06:08:20;2.41;90.04
68609;SHT31;55581;46.718;7.690;2024-03-07T06:10:47;2.40;90.41
68609;SHT31;55581;46.718;7.690;2024-03-07T06:13:16;2.44;90.60
68609;SHT31;55581;46.718;7.690;2024-03-07T06:15:45;2.41;91.22
68609;SHT31;55581;46.718;7.690;2024-03-07T06:18:11;2.34;90.48
68609;SHT31;55581;46.718;7.690;2024-03-07T06:20:39;2.33;89.92
68609;SHT31;55581;46.718;7.690;2024-03-07T06:23:06;2.36;90.28
68609;SHT31;55581;46.718;7.690;2024-03-07T06:25:34;2.40;89.65
68609;SHT31;55581;46.718;7.690;2024-03-07T06:28:12;2.30;89.33
68609;SHT31;55581;46.718;7.690;2024-03-07T06:30:41;2.23;89.52
68609;SHT31;55581;46.718;7.690;2024-03-07T06:33:08;2.22;90.03
68609;SHT31;55581;46.718;7.690;2024-03-07T06:35:34;2.18;90.66
68609;SHT31;55581;46.718;7.690;2024-03-07T06:38:06;2.12;90.00
68609;SHT31;55581;46.718;7.690;2024-03-07T06:40:37;2.15;89.96
68609;SHT31;55581;46.718;7.690;2024-03-07T06:43:03;2.19;90.39
68609;SHT31;55581;46.718;7.690;2024-03-07T06:45:31;2.19;90.07
68609;SHT31;55581;46.718;7.690;2024-03-07T06:47:57;2.18;90.58
68609;SHT31;55581;46.718;7.690;2024-03-07T06:50:22;2.12;90.20
68609;SHT31;55581;46.718;7.690;2024-03-07T06:52:50;2.16;91.41
68609;SHT31;55581;46.718;7.690;2024-03-07T06:55:16;2.16;90.74
68609;SHT31;55581;46.718;7.690;2024-03-07T06:57:43;2.20;90.61
68609;SHT31;55581;46.718;7.690;2024-03-07T07:00:13;2.20;90.45
68609;SHT31;55581;46.718;7.690;2024-03-07T07:02:40;2.28;89.87
68609;SHT31;55581;46.718;7.690;2024-03-07T07:05:07;2.32;89.81
68609;SHT31;55581;46.718;7.690;2024-03-07T07:07:38;2.40;91.28
68609;SHT31;55581;46.718;7.690;2024-03-07T07:10:07;2.53;90.16
68609;SHT31;55581;46.718;7.690;2024-03-07T07:12:35;2.58;89.79
68609;SHT31;55581;46.718;7.690;2024-03-07T07:15:01;2.70;89.58
68609;SHT31;55581;46.718;7.690;2024-03-07T07:17:26;2.74;88.86
68609;SHT31;55581;46.718;7.690;2024-03-07T07:19:54;2.81;89.58
68609;SHT31;55581;46.718;7.690;2024-03-07T07:22:22;2.88;89.12
68609;SHT31;55581;46.718;7.690;2024-03-07T07:24:47;2.92;88.81
68609;SHT31;55581;46.718;7.690;2024-03-07T07:27:12;2.95;88.91
68609;SHT31;55581;46.718;7.690;2024-03-07T07:29:38;3.08;88.60
68609;SHT31;55581;46.718;7.690;2024-03-07T07:32:07;3.27;85.95
68609;SHT31;55581;46.718;7.690;2024-03-07T07:34:32;3.51;84.93
68609;SHT31;55581;46.718;7.690;2024-03-07T07:37:00;3.71;84.41
68609;SHT31;55581;46.718;7.690;2024-03-07T07:39:25;3.81;83.36
68609;SHT31;55581;46.718;7.690;2024-03-07T07:41:51;3.97;85.56
68609;SHT31;55581;46.718;7.690;2024-03-07T07:44:16;3.98;85.26
68609;SHT31;55581;46.718;7.690;2024-03-07T07:46:42;3.92;84.07
68609;SHT31;55581;46.718;7.690;2024-03-07T07:49:09;3.99;83.39
68609;SHT31;55581;46.718;7.690;2024-03-07T07:51:34;3.92;83.97
68609;SHT31;55581;46.718;7.690;2024-03-07T07:53:59;3.88;84.86
68609;SHT31;55581;46.718;7.690;2024-03-07T07:56:25;3.91;83.61
68609;SHT31;55581;46.718;7.690;2024-03-07T07:58:53;3.91;84.68
68609;SHT31;55581;46.718;7.690;2024-03-07T08:01:19;3.92;84.11
68609;SHT31;55581;46.718;7.690;2024-03-07T08:03:45;3.94;85.60
68609;SHT31;55581;46.718;7.690;2024-03-07T08:06:10;3.98;85.44
68609;SHT31;55581;46.718;7.690;2024-03-07T08:08:36;4.05;85.06
68609;SHT31;55581;46.718;7.690;2024-03-07T08:11:04;4.08;83.17
68609;SHT31;55581;46.718;7.690;2024-03-07T08:13:29;4.12;83.56
68609;SHT31;55581;46.718;7.690;2024-03-07T08:15:55;4.23;83.81
68609;SHT31;55581;46.718;7.690;2024-03-07T08:18:22;4.34;83.22
68609;SHT31;55581;46.718;7.690;2024-03-07T08:20:48;4.47;83.10
68609;SHT31;55581;46.718;7.690;2024-03-07T08:23:14;4.70;82.16
68609;SHT31;55581;46.718;7.690;2024-03-07T08:25:42;4.95;80.91
68609;SHT31;55581;46.718;7.690;2024-03-07T08:28:08;5.25;82.76
68609;SHT31;55581;46.718;7.690;2024-03-07T08:30:33;5.33;81.95
68609;SHT31;55581;46.718;7.690;2024-03-07T08:33:00;5.15;82.17
68609;SHT31;55581;46.718;7.690;2024-03-07T08:35:28;5.25;81.51
68609;SHT31;55581;46.718;7.690;2024-03-07T08:37:57;5.25;81.29
68609;SHT31;55581;46.718;7.690;2024-03-07T08:40:27;5.25;79.93
68609;SHT31;55581;46.718;7.690;2024-03-07T08:42:56;5.36;79.49
68609;SHT31;55581;46.718;7.690;2024-03-07T08:45:23;5.58;78.48
68609;SHT31;55581;46.718;7.690;2024-03-07T08:47:52;5.77;76.99
68609;SHT31;55581;46.718;7.690;2024-03-07T08:50:21;5.77;76.08
68609;SHT31;55581;46.718;7.690;2024-03-07T08:52:48;5.73;76.97
68609;SHT31;55581;46.718;7.690;2024-03-07T08:55:15;5.92;76.28
68609;SHT31;55581;46.718;7.690;2024-03-07T08:57:42;6.06;74.85
68609;SHT31;55581;46.718;7.690;2024-03-07T09:00:09;6.26;71.75
68609;SHT31;55581;46.718;7.690;2024-03-07T09:02:40;6.18;74.17
68609;SHT31;55581;46.718;7.690;2024-03-07T09:05:06;6.16;72.18
68609;SHT31;55581;46.718;7.690;2024-03-07T09:07:32;6.16;72.65
68609;SHT31;55581;46.718;7.690;2024-03-07T09:10:00;6.19;72.95
68609;SHT31;55581;46.718;7.690;2024-03-07T09:12:28;6.09;74.65
68609;SHT31;55581;46.718;7.690;2024-03-07T09:14:54;6.34;73.06
68609;SHT31;55581;46.718;7.690;2024-03-07T09:17:21;6.41;73.97
68609;SHT31;55581;46.718;7.690;2024-03-07T09:19:47;6.74;71.67
68609;SHT31;55581;46.718;7.690;2024-03-07T09:22:15;6.83;72.70
68609;SHT31;55581;46.718;7.690;2024-03-07T09:24:40;6.84;71.86
68609;SHT31;55581;46.718;7.690;2024-03-07T09:27:08;6.68;71.38
68609;SHT31;55581;46.718;7.690;2024-03-07T09:29:38;6.56;72.79
68609;SHT31;55581;46.718;7.690;2024-03-07T09:32:04;6.80;69.37
68609;SHT31;55581;46.718;7.690;2024-03-07T09:34:32;6.81;69.99
68609;SHT31;55581;46.718;7.690;2024-03-07T09:36:57;6.95;70.43
68609;SHT31;55581;46.718;7.690;2024-03-07T09:39:24;7.09;69.60
68609;SHT31;55581;46.718;7.690;2024-03-07T09:41:49;7.09;70.58
68609;SHT31;55581;46.718;7.690;2024-03-07T09:44:18;7.02;69.18
68609;SHT31;55581;46.718;7.690;2024-03-07T09:46:57;7.09;69.99
68609;SHT31;55581;46.718;7.690;2024-03-07T09:49:28;7.11;69.39
68609;SHT31;55581;46.718;7.690;2024-03-07T09:51:55;7.24;71.23
68609;SHT31;55581;46.718;7.690;2024-03-07T09:54:24;7.78;64.72
68609;SHT31;55581;46.718;7.690;2024-03-07T09:56:58;7.87;63.63
68609;SHT31;55581;46.718;7.690;2024-03-07T09:59:27;7.51;64.82
68609;SHT31;55581;46.718;7.690;2024-03-07T10:01:57;7.40;64.25
68609;SHT31;55581;46.718;7.690;2024-03-07T10:04:48;7.04;68.28
68609;SHT31;55581;46.718;7.690;2024-03-07T10:07:17;6.77;70.01
68609;SHT31;55581;46.718;7.690;2024-03-07T10:09:46;6.87;70.10
68609;SHT31;55581;46.718;7.690;2024-03-07T10:12:12;6.84;72.49
68609;SHT31;55581;46.718;7.690;2024-03-07T10:14:38;6.98;70.47
68609;SHT31;55581;46.718;7.690;2024-03-07T10:17:04;6.92;67.88
68609;SHT31;55581;46.718;7.690;2024-03-07T10:19:30;6.80;68.30
68609;SHT31;55581;46.718;7.690;2024-03-07T10:21:56;6.98;70.97
68609;SHT31;55581;46.718;7.690;2024-03-07T10:24:27;7.13;72.74
68609;SHT31;55581;46.718;7.690;2024-03-07T10:26:54;7.30;70.47
68609;SHT31;55581;46.718;7.690;2024-03-07T10:29:24;7.57;71.46
68609;SHT31;55581;46.718;7.690;2024-03-07T10:31:50;7.74;72.07
68609;SHT31;55581;46.718;7.690;2024-03-07T10:34:16;7.73;68.50
68609;SHT31;55581;46.718;7.690;2024-03-07T10:36:43;7.87;69.89
68609;SHT31;55581;46.718;7.690;2024-03-07T10:39:09;7.87;66.77
68609;SHT31;55581;46.718;7.690;2024-03-07T10:41:47;8.15;66.88
68609;SHT31;55581;46.718;7.690;2024-03-07T10:44:19;8.29;66.71
68609;SHT31;55581;46.718;7.690;2024-03-07T10:46:52;8.53;67.26
68609;SHT31;55581;46.718;7.690;2024-03-07T10:49:19;8.22;65.54
68609;SHT31;55581;46.718;7.690;2024-03-07T10:51:57;8.19;64.82
68609;SHT31;55581;46.718;7.690;2024-03-07T10:55:07;8.26;66.25
68609;SHT31;55581;46.718;7.690;2024-03-07T10:57:51;8.25;67.25
68609;SHT31;55581;46.718;7.690;2024-03-07T11:00:21;7.89;65.33
68609;SHT31;55581;46.718;7.690;2024-03-07T11:03:01;7.97;66.82
68609;SHT31;55581;46.718;7.690;2024-03-07T11:05:32;8.10;68.85
68609;SHT31;55581;46.718;7.690;2024-03-07T11:08:01;7.68;65.72
68609;SHT31;55581;46.718;7.690;2024-03-07T11:10:37;7.88;66.43
68609;SHT31;55581;46.718;7.690;2024-03-07T11:13:04;7.87;66.95
68609;SHT31;55581;46.718;7.690;2024-03-07T11:15:30;7.92;68.54
68609;SHT31;55581;46.718;7.690;2024-03-07T11:17:59;8.05;67.61
68609;SHT31;55581;46.718;7.690;2024-03-07T11:20:35;8.01;67.58
68609;SHT31;55581;46.718;7.690;2024-03-07T11:23:24;8.19;66.78
68609;SHT31;55581;46.718;7.690;2024-03-07T11:25:56;8.33;69.30
68609;SHT31;55581;46.718;7.690;2024-03-07T11:28:30;8.59;68.54
68609;SHT31;55581;46.718;7.690;2024-03-07T11:33:41;8.97;66.72
68609;SHT31;55581;46.718;7.690;2024-03-07T11:36:09;9.04;66.23
68609;SHT31;55581;46.718;7.690;2024-03-07T11:38:58;8.88;65.77
68609;SHT31;55581;46.718;7.690;2024-03-07T11:41:25;9.36;66.34
68609;SHT31;55581;46.718;7.690;2024-03-07T11:43:55;9.29;65.11
68609;SHT31;55581;46.718;7.690;2024-03-07T11:46:22;9.29;61.98
68609;SHT31;55581;46.718;7.690;2024-03-07T11:48:50;9.04;64.41
68609;SHT31;55581;46.718;7.690;2024-03-07T11:51:19;9.47;66.14
68609;SHT31;55581;46.718;7.690;2024-03-07T11:53:56;9.48;65.92
68609;SHT31;55581;46.718;7.690;2024-03-07T11:56:21;9.69;64.63
68609;SHT31;55581;46.718;7.690;2024-03-07T11:58:48;9.94;65.10
68609;SHT31;55581;46.718;7.690;2024-03-07T12:01:22;9.88;62.59
68609;SHT31;55581;46.718;7.690;2024-03-07T12:03:50;10.06;64.36
68609;SHT31;55581;46.718;7.690;2024-03-07T12:06:18;9.95;64.03
68609;SHT31;55581;46.718;7.690;2024-03-07T12:08:48;10.09;59.61
68609;SHT31;55581;46.718;7.690;2024-03-07T12:11:14;9.80;61.60
68609;SHT31;55581;46.718;7.690;2024-03-07T12:13:41;9.61;61.19
68609;SHT31;55581;46.718;7.690;2024-03-07T12:16:07;9.74;63.05
68609;SHT31;55581;46.718;7.690;2024-03-07T12:18:34;9.78;61.95
68609;SHT31;55581;46.718;7.690;2024-03-07T12:21:01;9.95;63.88
68609;SHT31;55581;46.718;7.690;2024-03-07T12:23:31;9.94;64.91
68609;SHT31;55581;46.718;7.690;2024-03-07T12:26:01;10.12;64.01
68609;SHT31;55581;46.718;7.690;2024-03-07T12:28:27;10.37;63.52
68609;SHT31;55581;46.718;7.690;2024-03-07T12:30:54;10.47;62.81
68609;SHT31;55581;46.718;7.690;2024-03-07T12:33:24;10.30;61.39
68609;SHT31;55581;46.718;7.690;2024-03-07T12:35:53;10.46;61.35
68609;SHT31;55581;46.718;7.690;2024-03-07T12:38:25;10.53;61.95
68609;SHT31;55581;46.718;7.690;2024-03-07T12:43:33;10.57;61.20
68609;SHT31;55581;46.718;7.690;2024-03-07T12:45:58;10.55;61.65
68609;SHT31;55581;46.718;7.690;2024-03-07T12:48:25;10.67;62.17
68609;SHT31;55581;46.718;7.690;2024-03-07T12:50:51;10.70;62.35
68609;SHT31;55581;46.718;7.690;2024-03-07T12:53:23;11.04;61.74
68609;SHT31;55581;46.718;7.690;2024-03-07T12:55:51;10.78;62.66
68609;SHT31;55581;46.718;7.690;2024-03-07T12:58:17;10.81;60.89
68609;SHT31;55581;46.718;7.690;2024-03-07T13:00:47;10.83;60.81
68609;SHT31;55581;46.718;7.690;2024-03-07T13:03:12;10.47;59.00
68609;SHT31;55581;46.718;7.690;2024-03-07T13:05:41;10.68;60.81
68609;SHT31;55581;46.718;7.690;2024-03-07T13:08:11;10.70;60.54
68609;SHT31;55581;46.718;7.690;2024-03-07T13:10:44;10.61;60.34
68609;SHT31;55581;46.718;7.690;2024-03-07T13:13:10;10.60;59.12
68609;SHT31;55581;46.718;7.690;2024-03-07T13:15:39;10.77;60.74
68609;SHT31;55581;46.718;7.690;2024-03-07T13:18:08;10.60;61.17
68609;SHT31;55581;46.718;7.690;2024-03-07T13:20:35;10.85;62.17
68609;SHT31;55581;46.718;7.690;2024-03-07T13:23:01;11.00;61.68
68609;SHT31;55581;46.718;7.690;2024-03-07T13:25:28;10.91;60.18
68609;SHT31;55581;46.718;7.690;2024-03-07T13:30:26;10.67;61.95
68609;SHT31;55581;46.718;7.690;2024-03-07T13:32:56;11.12;61.17
68609;SHT31;55581;46.718;7.690;2024-03-07T13:35:23;11.10;59.68
68609;SHT31;55581;46.718;7.690;2024-03-07T13:37:50;11.07;60.77
68609;SHT31;55581;46.718;7.690;2024-03-07T13:40:16;10.95;60.00
68609;SHT31;55581;46.718;7.690;2024-03-07T13:42:51;10.87;61.77
68609;SHT31;55581;46.718;7.690;2024-03-07T13:45:18;11.14;61.04
68609;SHT31;55581;46.718;7.690;2024-03-07T13:47:45;11.00;59.78
68609;SHT31;55581;46.718;7.690;2024-03-07T13:50:14;11.04;60.60
68609;SHT31;55581;46.718;7.690;2024-03-07T13:52:40;11.29;61.07
68609;SHT31;55581;46.718;7.690;2024-03-07T13:55:10;11.33;60.81
68609;SHT31;55581;46.718;7.690;2024-03-07T13:57:51;11.23;59.45
68609;SHT31;55581;46.718;7.690;2024-03-07T14:06:03;10.95;59.59
68609;SHT31;55581;46.718;7.690;2024-03-07T14:31:06;10.81;61.13
68609;SHT31;55581;46.718;7.690;2024-03-07T14:36:38;10.78;60.26
68609;SHT31;55581;46.718;7.690;2024-03-07T14:39:06;10.77;61.00
68609;SHT31;55581;46.718;7.690;2024-03-07T14:41:49;10.64;61.74
68609;SHT31;55581;46.718;7.690;2024-03-07T14:44:16;10.52;61.81
68609;SHT31;55581;46.718;7.690;2024-03-07T14:46:43;10.42;60.76
68609;SHT31;55581;46.718;7.690;2024-03-07T14:49:14;10.45;60.78
68609;SHT31;55581;46.718;7.690;2024-03-07T14:51:41;10.36;61.29
68609;SHT31;55581;46.718;7.690;2024-03-07T14:54:06;10.39;62.60
68609;SHT31;55581;46.718;7.690;2024-03-07T14:56:33;10.50;62.28
68609;SHT31;55581;46.718;7.690;2024-03-07T14:58:59;10.47;61.57
68609;SHT31;55581;46.718;7.690;2024-03-07T15:01:28;10.43;61.09
68609;SHT31;55581;46.718;7.690;2024-03-07T15:03:56;10.32;59.80
68609;SHT31;55581;46.718;7.690;2024-03-07T15:06:24;10.16;59.44
68609;SHT31;55581;46.718;7.690;2024-03-07T15:08:50;10.13;60.26
68609;SHT31;55581;46.718;7.690;2024-03-07T15:11:27;10.02;60.90
68609;SHT31;55581;46.718;7.690;2024-03-07T15:13:54;10.08;62.19
68609;SHT31;55581;46.718;7.690;2024-03-07T15:16:20;9.99;59.82
68609;SHT31;55581;46.718;7.690;2024-03-07T15:18:51;9.84;60.63
68609;SHT31;55581;46.718;7.690;2024-03-07T15:21:17;9.92;59.28
68609;SHT31;55581;46.718;7.690;2024-03-07T15:23:42;9.75;62.00
68609;SHT31;55581;46.718;7.690;2024-03-07T15:26:08;9.77;61.29
68609;SHT31;55581;46.718;7.690;2024-03-07T15:28:33;9.91;61.46
68609;SHT31;55581;46.718;7.690;2024-03-07T15:31:01;9.82;61.56
68609;SHT31;55581;46.718;7.690;2024-03-07T15:33:32;9.90;61.57
68609;SHT31;55581;46.718;7.690;2024-03-07T15:35:57;9.70;61.76
68609;SHT31;55581;46.718;7.690;2024-03-07T15:38:23;9.82;60.17
68609;SHT31;55581;46.718;7.690;2024-03-07T15:40:48;9.64;61.04
68609;SHT31;55581;46.718;7.690;2024-03-07T15:43:15;9.48;61.78
68609;SHT31;55581;46.718;7.690;2024-03-07T15:45:40;9.64;63.91
68609;SHT31;55581;46.718;7.690;2024-03-07T15:48:07;9.65;61.41
68609;SHT31;55581;46.718;7.690;2024-03-07T15:50:38;9.57;61.58
68609;SHT31;55581;46.718;7.690;2024-03-07T15:53:08;9.64;61.75
68609;SHT31;55581;46.718;7.690;2024-03-07T15:55:35;9.65;62.39
68609;SHT31;55581;46.718;7.690;2024-03-07T15:58:03;9.64;63.62
68609;SHT31;55581;46.718;7.690;2024-03-07T16:00:33;9.69;63.48
68609;SHT31;55581;46.718;7.690;2024-03-07T16:05:34;9.60;62.73
68609;SHT31;55581;46.718;7.690;2024-03-07T16:08:02;9.60;62.39
68609;SHT31;55581;46.718;7.690;2024-03-07T16:10:32;9.51;63.93
68609;SHT31;55581;46.718;7.690;2024-03-07T16:13:02;9.69;64.53
68609;SHT31;55581;46.718;7.690;2024-03-07T16:15:29;9.54;61.70
68609;SHT31;55581;46.718;7.690;2024-03-07T16:17:58;9.35;62.57
68609;SHT31;55581;46.718;7.690;2024-03-07T16:20:25;9.36;63.08
68609;SHT31;55581;46.718;7.690;2024-03-07T16:22:56;9.40;64.07
68609;SHT31;55581;46.718;7.690;2024-03-07T16:25:23;9.22;62.84
68609;SHT31;55581;46.718;7.690;2024-03-07T16:27:50;9.11;65.42
68609;SHT31;55581;46.718;7.690;2024-03-07T16:30:17;8.91;65.94